createdAt,value
2022-07-30T00:00:46.694Z,10.10
2022-07-30T00:02:51.123Z,9.40
2022-07-30T00:04:58.990Z,8.73
2022-07-30T00:07:06.809Z,10.80
2022-07-30T00:09:15.794Z,10.47
2022-07-30T00:11:27.197Z,9.93
2022-07-30T00:13:38.931Z,10.43
2022-07-30T00:15:52.379Z,10.47
2022-07-30T00:18:01.309Z,10.73
2022-07-30T00:20:44.330Z,10.83
2022-07-30T00:22:50.658Z,10.60
2022-07-30T00:24:59.396Z,11.13
2022-07-30T00:27:17.936Z,10.70
2022-07-30T00:29:28.973Z,10.43
2022-07-30T00:31:33.796Z,11.13
2022-07-30T00:33:42.286Z,11.23
2022-07-30T00:35:52.635Z,11.07
2022-07-30T00:40:21.411Z,7.87
2022-07-30T00:42:28.984Z,10.43
2022-07-30T00:44:44.326Z,9.37
2022-07-30T00:46:50.319Z,9.83
2022-07-30T00:48:59.188Z,9.70
2022-07-30T00:51:02.870Z,9.97
2022-07-30T00:53:07.494Z,10.20
2022-07-30T00:55:12.533Z,10.67
2022-07-30T00:57:24.915Z,9.70
2022-07-30T01:00:11.345Z,10.10
2022-07-30T01:03:01.446Z,9.67
2022-07-30T01:05:38.864Z,9.33
2022-07-30T01:07:48.377Z,8.80
2022-07-30T01:10:12.580Z,8.93
2022-07-30T01:12:23.236Z,8.73
2022-07-30T01:14:29.260Z,9.80
2022-07-30T01:16:40.565Z,9.80
2022-07-30T01:19:02.685Z,8.93
2022-07-30T01:21:21.758Z,8.40
2022-07-30T01:23:39.812Z,9.30
2022-07-30T01:26:02.033Z,8.90
2022-07-30T01:28:06.970Z,8.27
2022-07-30T01:30:11.379Z,9.13
2022-07-30T01:32:17.701Z,9.57
2022-07-30T01:34:28.386Z,8.17
2022-07-30T01:36:44.492Z,9.10
2022-07-30T01:39:57.830Z,9.80
2022-07-30T01:42:06.629Z,9.70
2022-07-30T01:44:23.742Z,10.53
2022-07-30T01:46:48.529Z,10.83
2022-07-30T01:51:57.142Z,9.07
2022-07-30T01:54:07.189Z,9.30
2022-07-30T01:56:17.463Z,8.20
2022-07-30T01:58:36.695Z,10.13
2022-07-30T02:00:55.918Z,9.50
2022-07-30T02:03:37.278Z,9.23
2022-07-30T02:06:07.702Z,8.40
2022-07-30T02:08:38.680Z,7.60
2022-07-30T02:10:55.185Z,7.60
2022-07-30T02:13:12.197Z,7.50
2022-07-30T02:15:37.050Z,7.33
2022-07-30T02:17:46.319Z,6.57
2022-07-30T02:19:53.282Z,6.73
2022-07-30T02:29:23.021Z,6.53
2022-07-30T02:32:04.876Z,7.17
2022-07-30T02:34:26.399Z,5.60
2022-07-30T02:39:36.693Z,5.47
2022-07-30T02:42:00.127Z,6.67
2022-07-30T02:44:23.310Z,6.13
2022-07-30T02:46:46.022Z,6.23
2022-07-30T02:49:11.976Z,6.03
2022-07-30T02:51:40.009Z,5.97
2022-07-30T02:54:06.596Z,6.30
2022-07-30T02:56:30.625Z,6.47
2022-07-30T02:58:53.893Z,6.70
2022-07-30T03:01:18.177Z,6.77
2022-07-30T03:03:41.699Z,6.40
2022-07-30T03:06:05.486Z,7.53
2022-07-30T03:08:32.218Z,7.73
2022-07-30T03:10:59.561Z,7.20
2022-07-30T03:13:26.753Z,6.97
2022-07-30T03:16:03.491Z,6.50
2022-07-30T03:18:27.993Z,6.87
2022-07-30T03:21:16.426Z,7.37
2022-07-30T03:49:35.962Z,5.57
2022-07-30T03:55:56.231Z,5.67
2022-07-30T04:31:45.706Z,6.63
2022-07-30T04:49:01.929Z,5.90
2022-07-30T05:46:30.483Z,4.20
2022-07-30T06:03:33.137Z,4.73
2022-07-30T06:06:58.919Z,4.30
2022-07-30T07:00:42.653Z,3.17
2022-07-30T07:03:56.195Z,3.63
2022-07-30T07:07:12.567Z,2.80
2022-07-30T07:38:01.388Z,3.00
2022-07-30T07:50:30.210Z,1.87
2022-07-30T08:02:42.835Z,3.17
2022-07-30T08:05:06.141Z,2.93
2022-07-30T08:08:01.169Z,2.33
2022-07-30T08:10:44.401Z,2.80
2022-07-30T08:13:48.372Z,2.30
2022-07-30T08:15:51.886Z,2.63
2022-07-30T08:18:21.092Z,2.23
2022-07-30T08:20:43.271Z,2.80
2022-07-30T08:23:05.756Z,1.90
2022-07-30T08:25:28.318Z,2.83
2022-07-30T08:27:51.087Z,3.27
2022-07-30T08:30:15.369Z,2.47
2022-07-30T08:32:38.486Z,2.80
2022-07-30T08:35:02.941Z,2.97
2022-07-30T08:37:26.714Z,3.20
2022-07-30T08:39:49.401Z,2.67
2022-07-30T08:42:11.752Z,3.10
2022-07-30T08:44:34.808Z,2.87
2022-07-30T08:46:58.659Z,3.03
2022-07-30T08:49:21.614Z,4.53
2022-07-30T08:51:46.148Z,4.30
2022-07-30T08:54:09.034Z,4.80
2022-07-30T08:56:32.004Z,4.20
2022-07-30T08:58:55.101Z,4.93
2022-07-30T09:01:18.924Z,4.90
2022-07-30T09:03:44.160Z,4.73
2022-07-30T09:06:07.240Z,5.53
2022-07-30T09:08:31.337Z,5.20
2022-07-30T09:10:53.654Z,4.90
2022-07-30T09:13:26.034Z,4.70
2022-07-30T09:15:48.197Z,5.10
2022-07-30T09:18:10.825Z,4.40
2022-07-30T09:20:34.915Z,5.50
2022-07-30T09:22:58.824Z,5.00
2022-07-30T09:25:36.145Z,4.43
2022-07-30T09:28:03.113Z,3.50
2022-07-30T09:30:50.821Z,4.07
2022-07-30T09:33:41.262Z,3.73
2022-07-30T09:38:49.016Z,4.13
2022-07-30T09:42:04.700Z,4.20
2022-07-30T09:44:57.885Z,3.77
2022-07-30T09:47:48.300Z,3.63
2022-07-30T09:50:30.509Z,3.50
2022-07-30T09:53:01.956Z,3.77
2022-07-30T09:55:41.463Z,2.93
2022-07-30T09:58:08.049Z,3.53
2022-07-30T10:00:42.802Z,3.90
2022-07-30T10:03:38.523Z,3.23
2022-07-30T10:06:21.283Z,3.43
2022-07-30T10:09:14.311Z,3.63
2022-07-30T10:11:39.689Z,3.53
2022-07-30T10:14:31.384Z,3.57
2022-07-30T10:16:56.517Z,2.77
2022-07-30T10:20:08.279Z,3.47
2022-07-30T10:22:55.109Z,3.70
2022-07-30T10:29:12.934Z,3.30
2022-07-30T10:32:17.592Z,3.10
2022-07-30T10:37:00.603Z,3.63
2022-07-30T10:39:34.626Z,3.43
2022-07-30T10:42:03.481Z,4.10
2022-07-30T10:44:35.119Z,2.93
2022-07-30T10:47:07.434Z,3.90
2022-07-30T10:49:35.234Z,3.67
2022-07-30T10:52:05.601Z,4.00
2022-07-30T10:54:39.589Z,4.40
2022-07-30T10:57:05.689Z,4.20
2022-07-30T10:59:29.135Z,3.80
2022-07-30T11:02:11.059Z,4.80
2022-07-30T11:04:33.469Z,3.67
2022-07-30T11:07:20.916Z,3.80
2022-07-30T11:09:45.103Z,3.63
2022-07-30T11:12:46.331Z,3.77
2022-07-30T11:15:18.961Z,4.00
2022-07-30T11:18:00.938Z,3.57
2022-07-30T11:20:25.277Z,3.77
2022-07-30T11:22:51.096Z,4.67
2022-07-30T12:02:30.737Z,3.57
2022-07-30T12:04:34.682Z,3.57
2022-07-30T12:06:45.384Z,2.80
2022-07-30T12:08:53.951Z,3.20
2022-07-30T12:11:01.231Z,3.77
2022-07-30T12:13:24.174Z,3.23
2022-07-30T12:15:53.612Z,3.47
2022-07-30T12:18:25.344Z,2.63
2022-07-30T12:20:30.388Z,2.57
2022-07-30T12:22:34.476Z,3.40
2022-07-30T12:24:38.011Z,2.40
2022-07-30T12:26:41.664Z,2.30
2022-07-30T12:28:47.115Z,2.67
2022-07-30T12:30:51.190Z,2.63
2022-07-30T12:32:54.790Z,3.57
2022-07-30T12:34:59.993Z,2.80
2022-07-30T12:37:10.649Z,2.93
2022-07-30T12:39:20.586Z,3.00
2022-07-30T12:41:23.993Z,2.20
2022-07-30T12:43:50.787Z,3.60
2022-07-30T12:46:00.553Z,2.27
2022-07-30T12:50:21.902Z,2.50
2022-07-30T13:00:07.558Z,2.13
2022-07-30T13:02:33.535Z,2.73
2022-07-30T13:05:10.993Z,2.40
2022-07-30T13:07:36.903Z,2.47
2022-07-30T13:10:10.676Z,2.50
2022-07-30T13:12:32.890Z,1.83
2022-07-30T13:49:49.429Z,1.90
2022-07-30T13:51:53.083Z,2.30
2022-07-30T13:53:57.725Z,3.00
2022-07-30T13:56:01.403Z,2.90
2022-07-30T13:58:06.215Z,2.63
2022-07-30T14:00:12.632Z,2.90
2022-07-30T14:02:16.757Z,4.43
2022-07-30T14:04:20.042Z,2.53
2022-07-30T14:06:25.315Z,2.20
2022-07-30T14:08:31.461Z,2.30
2022-07-30T14:10:36.176Z,2.37
2022-07-30T14:12:40.335Z,2.57
2022-07-30T14:14:43.796Z,2.60
2022-07-30T14:16:53.763Z,2.60
2022-07-30T14:19:00.209Z,2.50
2022-07-30T14:21:03.787Z,2.40
2022-07-30T14:23:09.211Z,3.13
2022-07-30T14:25:13.227Z,2.30
2022-07-30T14:27:20.649Z,2.60
2022-07-30T14:29:26.045Z,2.80
2022-07-30T14:31:29.753Z,2.20
2022-07-30T14:33:33.964Z,2.10
2022-07-30T14:35:40.312Z,2.33
2022-07-30T14:37:43.669Z,2.67
2022-07-30T14:39:48.617Z,1.90
2022-07-30T14:41:53.178Z,2.23
2022-07-30T14:43:59.291Z,2.27
2022-07-30T14:46:02.550Z,2.77
2022-07-30T14:48:06.421Z,1.97
2022-07-30T14:50:10.684Z,2.37
2022-07-30T14:52:14.200Z,2.40
2022-07-30T14:54:17.896Z,2.03
2022-07-30T14:56:23.983Z,2.60
2022-07-30T14:58:27.585Z,2.33
2022-07-30T15:00:35.582Z,2.63
2022-07-30T15:02:52.340Z,2.10
2022-07-30T15:04:56.396Z,1.80
2022-07-30T15:06:59.876Z,2.20
2022-07-30T15:09:04.818Z,1.70
2022-07-30T15:11:09.607Z,1.80
2022-07-30T15:13:15.351Z,2.33
2022-07-30T15:15:19.340Z,1.83
2022-07-30T15:17:26.493Z,1.80
2022-07-30T15:19:29.773Z,1.93
2022-07-30T15:21:33.192Z,3.00
2022-07-30T15:23:37.002Z,2.57
2022-07-30T15:25:40.245Z,2.20
2022-07-30T15:27:43.545Z,2.07
2022-07-30T15:29:49.673Z,2.10
2022-07-30T15:31:53.369Z,1.90
2022-07-30T15:33:57.280Z,1.97
2022-07-30T15:36:00.617Z,1.90
2022-07-30T15:38:03.797Z,1.93
2022-07-30T15:40:08.383Z,1.80
2022-07-30T15:42:12.138Z,1.80
2022-07-30T15:44:15.903Z,1.80
2022-07-30T15:46:31.797Z,1.63
2022-07-30T15:48:35.854Z,1.80
2022-07-30T15:50:39.185Z,1.33
2022-07-30T15:52:42.494Z,1.57
2022-07-30T15:54:46.059Z,1.60
2022-07-30T15:56:49.706Z,1.30
2022-07-30T15:58:53.124Z,1.30
2022-07-30T16:00:59.933Z,1.30
2022-07-30T16:03:05.250Z,1.50
2022-07-30T16:05:13.627Z,1.13
2022-07-30T16:07:34.818Z,1.50
2022-07-30T16:09:40.678Z,1.60
2022-07-30T16:15:16.336Z,1.40
2022-07-30T16:17:43.642Z,0.90
2022-07-30T16:19:49.551Z,1.90
2022-07-30T16:21:56.137Z,1.43
2022-07-30T16:24:01.467Z,1.23
2022-07-30T16:26:05.026Z,1.20
2022-07-30T16:28:08.643Z,1.50
2022-07-30T16:30:12.766Z,1.57
2022-07-30T16:32:16.314Z,1.37
2022-07-30T16:34:26.386Z,1.43
2022-07-30T16:36:31.610Z,1.63
2022-07-30T16:38:35.147Z,1.50
2022-07-30T16:40:39.343Z,1.50
2022-07-30T16:42:42.863Z,1.60
2022-07-30T16:44:46.387Z,1.97
2022-07-30T16:46:50.104Z,1.70
2022-07-30T16:48:53.733Z,2.30
2022-07-30T16:50:57.341Z,1.40
2022-07-30T16:53:02.012Z,1.23
2022-07-30T16:55:06.208Z,1.47
2022-07-30T16:57:10.491Z,1.43
2022-07-30T16:59:17.200Z,1.33
2022-07-30T17:01:20.982Z,2.57
2022-07-30T17:03:25.297Z,1.70
2022-07-30T17:05:29.331Z,1.10
2022-07-30T17:07:32.948Z,1.73
2022-07-30T17:09:38.289Z,1.50
2022-07-30T17:11:47.177Z,1.30
2022-07-30T17:13:51.669Z,1.50
2022-07-30T17:15:55.060Z,1.30
2022-07-30T17:17:58.580Z,1.37
2022-07-30T17:20:04.012Z,1.30
2022-07-30T17:22:08.484Z,1.37
2022-07-30T17:24:13.576Z,1.30
2022-07-30T17:26:19.033Z,1.67
2022-07-30T17:28:26.906Z,1.43
2022-07-30T17:30:31.592Z,1.50
2022-07-30T17:32:34.965Z,1.57
2022-07-30T17:34:38.522Z,1.37
2022-07-30T17:36:44.262Z,1.13
2022-07-30T17:38:55.695Z,1.27
2022-07-30T17:40:59.638Z,1.33
2022-07-30T17:43:04.825Z,0.83
2022-07-30T17:45:09.952Z,1.00
2022-07-30T17:47:15.132Z,0.87
2022-07-30T17:49:20.144Z,1.40
2022-07-30T17:51:23.725Z,1.60
2022-07-30T17:53:27.605Z,1.07
2022-07-30T17:55:31.244Z,0.93
2022-07-30T17:57:34.808Z,1.20
2022-07-30T17:59:40.520Z,0.90
2022-07-30T18:01:43.744Z,1.47
2022-07-30T18:03:47.353Z,1.43
2022-07-30T18:05:51.518Z,1.00
2022-07-30T18:07:54.747Z,0.90
2022-07-30T18:09:58.704Z,1.23
2022-07-30T18:12:02.114Z,1.53
2022-07-30T18:14:06.294Z,1.10
2022-07-30T18:16:11.949Z,1.87
2022-07-30T18:18:15.509Z,1.20
2022-07-30T18:20:19.878Z,1.13
2022-07-30T18:22:29.740Z,1.13
2022-07-30T18:24:40.466Z,1.67
2022-07-30T18:26:47.908Z,1.30
2022-07-30T18:28:52.064Z,1.10
2022-07-30T18:30:56.432Z,1.20
2022-07-30T18:33:01.563Z,1.67
2022-07-30T18:35:05.140Z,1.30
2022-07-30T18:37:14.486Z,2.00
2022-07-30T18:39:20.055Z,1.57
2022-07-30T18:41:26.438Z,1.43
2022-07-30T18:43:31.123Z,1.37
2022-07-30T18:45:37.190Z,1.50
2022-07-30T18:47:41.049Z,2.07
2022-07-30T18:49:46.421Z,1.53
2022-07-30T18:51:50.240Z,1.17
2022-07-30T18:53:53.831Z,1.57
2022-07-30T18:55:57.773Z,1.80
2022-07-30T18:58:01.326Z,1.63
2022-07-30T19:00:05.194Z,1.87
2022-07-30T19:02:08.985Z,1.43
2022-07-30T19:04:12.683Z,2.17
2022-07-30T19:06:17.948Z,1.37
2022-07-30T19:08:24.939Z,1.63
2022-07-30T19:10:28.703Z,1.47
2022-07-30T19:12:32.833Z,1.90
2022-07-30T19:14:36.908Z,2.40
2022-07-30T19:16:40.918Z,2.10
2022-07-30T19:18:44.400Z,2.50
2022-07-30T19:20:48.236Z,2.03
2022-07-30T19:22:53.386Z,2.17
2022-07-30T19:24:57.297Z,2.13
2022-07-30T19:27:00.979Z,2.20
2022-07-30T19:29:07.877Z,2.40
2022-07-30T19:31:11.524Z,2.37
2022-07-30T19:33:15.945Z,2.67
2022-07-30T19:35:19.792Z,2.10
2022-07-30T19:37:23.774Z,2.10
2022-07-30T19:39:29.311Z,1.97
2022-07-30T19:41:40.996Z,2.17
2022-07-30T19:43:57.856Z,2.60
2022-07-30T19:46:01.869Z,2.73
2022-07-30T19:48:06.877Z,2.03
2022-07-30T19:50:14.281Z,2.23
2022-07-30T19:52:23.696Z,2.60
2022-07-30T19:54:30.955Z,2.70
2022-07-30T19:56:37.870Z,2.40
2022-07-30T19:58:41.537Z,2.47
2022-07-30T20:00:49.456Z,2.60
2022-07-30T20:02:53.260Z,2.53
2022-07-30T20:04:57.418Z,2.80
2022-07-30T20:07:02.346Z,2.90
2022-07-30T20:09:12.564Z,2.30
2022-07-30T20:11:35.157Z,2.30
2022-07-30T20:13:45.580Z,2.47
2022-07-30T20:15:53.521Z,2.20
2022-07-30T20:17:57.253Z,2.07
2022-07-30T20:20:00.783Z,2.37
2022-07-30T20:22:04.434Z,2.50
2022-07-30T20:24:08.713Z,2.30
2022-07-30T20:26:14.360Z,2.87
2022-07-30T20:28:21.075Z,2.57
2022-07-30T20:30:25.869Z,2.60
2022-07-30T20:32:29.716Z,2.50
2022-07-30T20:34:35.509Z,3.17
2022-07-30T20:36:39.258Z,2.83
2022-07-30T20:38:44.500Z,3.00
2022-07-30T20:40:51.487Z,2.37
2022-07-30T20:42:55.021Z,3.47
2022-07-30T20:45:00.435Z,3.03
2022-07-30T20:47:08.150Z,3.30
2022-07-30T20:49:12.062Z,3.10
2022-07-30T20:51:16.253Z,3.20
2022-07-30T20:53:23.068Z,3.20
2022-07-30T20:55:27.270Z,3.77
2022-07-30T20:57:57.258Z,3.80
2022-07-30T20:59:54.483Z,3.40
2022-07-30T21:02:00.979Z,3.43
2022-07-30T21:04:05.719Z,4.60
2022-07-30T21:06:12.685Z,4.63
2022-07-30T21:08:16.359Z,5.67
2022-07-30T21:10:23.484Z,4.53
2022-07-30T21:12:30.876Z,4.87
2022-07-30T21:14:37.029Z,8.30
2022-07-30T21:16:41.883Z,10.03
2022-07-30T21:18:49.248Z,9.17
2022-07-30T21:20:53.909Z,6.03
2022-07-30T21:23:04.938Z,6.60
2022-07-30T21:25:09.564Z,6.10
2022-07-30T21:27:13.639Z,6.50
2022-07-30T21:29:18.531Z,4.83
2022-07-30T21:31:55.962Z,4.77
2022-07-30T21:33:47.207Z,4.50
2022-07-30T21:35:50.669Z,3.80
2022-07-30T21:37:54.218Z,3.63
2022-07-30T21:39:59.779Z,2.90
2022-07-30T21:42:03.809Z,2.70
2022-07-30T21:44:08.269Z,2.30
2022-07-30T21:46:13.666Z,2.83
2022-07-30T21:48:17.577Z,2.50
2022-07-30T21:50:23.299Z,2.40
2022-07-30T21:52:27.036Z,2.07
2022-07-30T21:54:31.071Z,2.63
2022-07-30T21:56:41.386Z,2.23
2022-07-30T21:58:45.945Z,2.30
2022-07-30T22:04:04.170Z,2.17
2022-07-30T22:05:52.338Z,2.10
2022-07-30T22:07:55.871Z,1.60
2022-07-30T22:10:00.787Z,2.13
2022-07-30T22:12:09.233Z,2.57
2022-07-30T22:16:46.211Z,1.80
2022-07-30T22:18:50.836Z,1.60
2022-07-30T22:20:57.616Z,2.10
2022-07-30T22:23:02.097Z,2.00
2022-07-30T22:25:09.761Z,2.30
2022-07-30T22:27:14.907Z,1.77
2022-07-30T22:29:18.720Z,2.40
2022-07-30T22:31:23.005Z,1.90
2022-07-30T22:33:27.153Z,2.30
2022-07-30T22:35:34.628Z,2.40
2022-07-30T22:37:39.573Z,1.97
2022-07-30T22:39:51.874Z,2.10
2022-07-30T22:42:07.834Z,2.53
2022-07-30T22:44:16.360Z,3.17
2022-07-30T22:46:31.073Z,2.33
2022-07-30T22:48:35.496Z,2.37
2022-07-30T22:50:40.213Z,2.57
2022-07-30T22:52:53.472Z,2.23
2022-07-30T22:55:08.825Z,3.60
2022-07-30T22:57:14.149Z,2.20
2022-07-30T22:59:18.869Z,2.67
2022-07-30T23:01:43.650Z,2.40
2022-07-30T23:03:47.994Z,2.70
2022-07-30T23:05:54.989Z,2.97
2022-07-30T23:08:02.227Z,2.93
2022-07-30T23:10:17.118Z,2.70
2022-07-30T23:12:21.823Z,2.93
2022-07-30T23:12:27.883Z,1.80
2022-07-30T23:12:31.442Z,1.80
2022-07-30T23:14:27.232Z,3.20
2022-07-30T23:16:30.836Z,3.37
2022-07-30T23:18:35.207Z,2.80
2022-07-30T23:20:39.593Z,3.03
2022-07-30T23:22:43.149Z,3.10
2022-07-30T23:24:48.391Z,2.63
2022-07-30T23:26:51.958Z,2.60
2022-07-30T23:28:55.498Z,3.20
2022-07-30T23:30:59.483Z,3.30
2022-07-30T23:33:03.449Z,2.73
2022-07-30T23:35:08.621Z,3.60
2022-07-30T23:37:14.775Z,2.83
2022-07-30T23:39:21.796Z,2.70
2022-07-30T23:41:29.651Z,3.30
2022-07-30T23:43:34.801Z,2.87
2022-07-30T23:45:41.182Z,2.63
2022-07-30T23:48:01.785Z,3.00
2022-07-30T23:50:09.587Z,2.70
2022-07-30T23:52:22.255Z,2.37
2022-07-30T23:54:30.147Z,2.43
2022-07-30T23:56:36.316Z,2.53
2022-07-30T23:58:46.153Z,3.00
